Time;durP1;ratioP1;P1;durP2;ratioP2;P2;SDS_P1;SDS_P2;PMS_P1;PMS_P2;Temp;Humidity;BMP_temperature;BMP_pressure;BME280_temperature;BME280_humidity;BME280_pressure;Samples;Min_cycle;Max_cycle;Signal;HPM_P1;HPM_P2
2023/07/26 00:00:00;;;;;;;1.02;0.68;;;14.60;1.00;;;;;;5015068;28;20041;-84
2023/07/26 00:02:27;;;;;;;0.90;0.45;;;14.50;1.00;;;;;;5023393;28;20061;-85
2023/07/26 00:04:54;;;;;;;0.73;0.47;;;14.40;1.00;;;;;;5033257;28;20056;-86
2023/07/26 00:07:21;;;;;;;1.30;0.77;;;14.30;1.00;;;;;;5038871;28;20045;-84
2023/07/26 00:09:48;;;;;;;0.50;0.40;;;14.20;2.80;;;;;;5047041;28;20121;-85
2023/07/26 00:12:15;;;;;;;0.73;0.52;;;14.20;16.00;;;;;;5030293;28;20315;-84
2023/07/26 00:14:42;;;;;;;1.20;0.63;;;14.20;19.00;;;;;;5024543;28;20057;-86
2023/07/26 00:17:09;;;;;;;0.82;0.60;;;14.10;27.80;;;;;;5066231;28;20052;-84
2023/07/26 00:19:36;;;;;;;1.45;0.80;;;14.00;43.20;;;;;;5044370;28;20056;-86
2023/07/26 00:22:03;;;;;;;1.30;0.95;;;14.00;71.20;;;;;;5048484;28;20049;-86
2023/07/26 00:24:30;;;;;;;1.15;0.57;;;14.00;88.50;;;;;;5047600;28;20060;-87
2023/07/26 00:26:57;;;;;;;0.75;0.52;;;14.00;94.90;;;;;;5049789;28;20062;-86
2023/07/26 00:29:23;;;;;;;0.85;0.60;;;13.90;99.90;;;;;;5050308;28;20056;-84
2023/07/26 00:31:50;;;;;;;0.68;0.47;;;13.90;99.90;;;;;;5049233;28;20064;-86
2023/07/26 00:34:17;;;;;;;0.93;0.65;;;13.80;99.90;;;;;;5049168;28;20052;-85
2023/07/26 00:36:44;;;;;;;0.80;0.70;;;13.80;99.90;;;;;;5029216;28;20063;-86
2023/07/26 00:39:11;;;;;;;1.27;0.60;;;13.70;99.90;;;;;;5034320;28;20057;-85
2023/07/26 00:41:38;;;;;;;1.35;0.60;;;13.70;99.90;;;;;;5029391;28;20045;-86
2023/07/26 00:44:05;;;;;;;1.08;0.82;;;13.80;99.90;;;;;;5044232;28;20109;-86
2023/07/26 00:46:31;;;;;;;0.65;0.52;;;13.70;99.90;;;;;;5048908;28;20045;-85
2023/07/26 00:48:59;;;;;;;0.90;0.75;;;13.70;99.90;;;;;;5065837;28;20056;-85
2023/07/26 00:51:26;;;;;;;0.95;0.80;;;13.60;99.90;;;;;;5049553;28;20463;-86
2023/07/26 00:53:52;;;;;;;0.80;0.60;;;13.50;99.90;;;;;;5049154;28;20569;-84
2023/07/26 00:56:19;;;;;;;0.75;0.50;;;13.40;99.90;;;;;;5028576;28;20504;-83
2023/07/26 00:58:47;;;;;;;0.80;0.52;;;13.40;99.90;;;;;;5018031;28;20041;-84
2023/07/26 01:01:14;;;;;;;0.85;0.70;;;13.40;99.90;;;;;;5025965;28;20049;-83
2023/07/26 01:03:41;;;;;;;1.95;0.80;;;13.30;99.90;;;;;;5043392;28;20370;-84
2023/07/26 01:06:16;;;;;;;0.73;0.63;;;13.30;99.90;;;;;;5058397;28;20578;-83
2023/07/26 01:09:01;;;;;;;1.48;0.90;;;13.30;99.90;;;;;;5044392;28;20077;-85
2023/07/26 01:11:33;;;;;;;0.68;0.55;;;13.30;99.90;;;;;;5062285;28;20045;-85
2023/07/26 01:14:28;;;;;;;1.90;0.80;;;13.20;99.90;;;;;;5040457;28;20048;-84
2023/07/26 01:16:55;;;;;;;0.70;0.50;;;13.10;99.90;;;;;;5044568;28;20048;-83
2023/07/26 01:19:22;;;;;;;0.98;0.65;;;13.00;99.90;;;;;;5045287;28;20118;-84
2023/07/26 01:21:49;;;;;;;0.98;0.57;;;13.00;99.90;;;;;;5044729;28;20053;-84
2023/07/26 01:24:16;;;;;;;0.98;0.75;;;12.90;99.90;;;;;;5042191;28;20064;-84
2023/07/26 01:26:43;;;;;;;1.30;0.82;;;12.90;99.90;;;;;;5023746;28;20442;-84
2023/07/26 01:29:09;;;;;;;0.95;0.50;;;12.80;1.00;;;;;;5017638;28;20052;-83
2023/07/26 01:31:37;;;;;;;1.42;0.60;;;12.80;1.00;;;;;;5028826;28;20049;-84
2023/07/26 01:34:06;;;;;;;1.27;0.80;;;12.80;1.00;;;;;;5031734;28;20091;-84
2023/07/26 01:36:33;;;;;;;1.02;0.60;;;12.80;1.00;;;;;;5044260;28;20068;-84
2023/07/26 01:38:59;;;;;;;1.55;0.73;;;12.70;1.00;;;;;;5047549;28;20041;-84
2023/07/26 01:41:26;;;;;;;0.75;0.45;;;12.70;1.00;;;;;;5032297;28;20561;-84
2023/07/26 01:43:53;;;;;;;0.80;0.57;;;12.60;1.00;;;;;;5043448;28;20056;-84
2023/07/26 01:46:20;;;;;;;0.50;0.30;;;12.60;1.00;;;;;;5038833;28;20045;-85
2023/07/26 01:48:47;;;;;;;1.08;0.70;;;12.50;28.90;;;;;;5046730;28;20103;-84
2023/07/26 01:51:13;;;;;;;0.88;0.55;;;12.50;84.80;;;;;;5031062;28;20183;-85
2023/07/26 01:53:40;;;;;;;0.80;0.50;;;12.40;99.90;;;;;;5039281;28;20044;-84
2023/07/26 01:56:07;;;;;;;0.90;0.60;;;12.40;99.90;;;;;;5029408;28;20695;-84
2023/07/26 01:58:34;;;;;;;1.00;0.63;;;12.50;99.90;;;;;;5043427;28;20056;-83
2023/07/26 02:01:03;;;;;;;0.65;0.60;;;12.40;99.90;;;;;;5014858;28;20450;-84
2023/07/26 02:03:30;;;;;;;0.52;0.40;;;12.40;99.90;;;;;;5040215;28;20068;-84
2023/07/26 02:05:56;;;;;;;1.10;0.70;;;12.40;99.90;;;;;;5062255;28;20049;-84
2023/07/26 02:08:23;;;;;;;0.75;0.45;;;12.40;99.90;;;;;;5053584;28;20051;-83
2023/07/26 02:10:50;;;;;;;1.30;0.70;;;12.30;99.90;;;;;;5034499;28;20111;-84
2023/07/26 02:13:17;;;;;;;0.93;0.70;;;12.30;99.90;;;;;;5043226;28;20056;-83
2023/07/26 02:15:45;;;;;;;0.90;0.63;;;12.30;99.90;;;;;;5028998;28;20131;-84
2023/07/26 02:18:12;;;;;;;0.70;0.50;;;12.20;99.90;;;;;;5029638;28;20044;-83
2023/07/26 02:20:39;;;;;;;1.35;0.57;;;12.10;99.90;;;;;;5041665;28;20052;-82
2023/07/26 02:23:05;;;;;;;1.27;0.68;;;12.00;1.00;;;;;;5058788;28;20099;-84
2023/07/26 02:25:32;;;;;;;1.60;0.80;;;12.00;1.00;;;;;;5044769;28;20476;-84
2023/07/26 02:27:59;;;;;;;0.93;0.63;;;12.00;11.10;;;;;;5064332;28;20059;-84
2023/07/26 02:30:26;;;;;;;0.75;0.55;;;12.00;16.80;;;;;;5039463;28;20059;-84
2023/07/26 02:32:53;;;;;;;1.23;0.70;;;12.00;4.70;;;;;;5023468;28;20561;-84
2023/07/26 02:35:19;;;;;;;1.10;0.57;;;12.00;19.60;;;;;;5030286;28;20068;-84
2023/07/26 02:37:46;;;;;;;1.15;0.65;;;11.90;60.50;;;;;;5033911;28;20040;-83
2023/07/26 02:40:13;;;;;;;1.38;0.77;;;11.80;96.90;;;;;;5034129;28;20048;-83
2023/07/26 02:42:40;;;;;;;1.00;0.68;;;11.70;99.90;;;;;;5057758;28;20045;-84
2023/07/26 02:45:07;;;;;;;1.00;0.70;;;11.70;99.90;;;;;;5014284;28;20053;-84
2023/07/26 02:47:34;;;;;;;1.65;0.80;;;11.70;99.90;;;;;;5047516;28;20061;-83
2023/07/26 02:50:03;;;;;;;1.20;0.80;;;11.70;99.90;;;;;;5014355;28;20373;-84
2023/07/26 02:52:31;;;;;;;0.70;0.55;;;11.60;99.90;;;;;;5049246;28;20464;-84
2023/07/26 02:54:58;;;;;;;0.80;0.60;;;11.60;99.90;;;;;;5039545;28;20088;-84
2023/07/26 02:57:25;;;;;;;0.82;0.68;;;11.50;99.90;;;;;;5044226;28;20045;-84
2023/07/26 02:59:52;;;;;;;0.40;0.40;;;11.50;1.00;;;;;;5030911;28;20052;-84
2023/07/26 03:02:19;;;;;;;0.52;0.52;;;11.40;1.00;;;;;;5046716;28;20068;-85
2023/07/26 03:04:46;;;;;;;0.45;0.40;;;11.50;1.00;;;;;;5031303;28;20134;-84
2023/07/26 03:07:13;;;;;;;0.90;0.50;;;11.50;1.00;;;;;;5053732;28;20045;-84
2023/07/26 03:09:40;;;;;;;0.98;0.73;;;11.50;1.00;;;;;;5025642;28;20060;-85
2023/07/26 03:12:08;;;;;;;0.90;0.70;;;11.50;1.00;;;;;;5061630;28;20070;-85
2023/07/26 03:14:40;;;;;;;1.27;0.60;;;11.50;1.00;;;;;;5066352;28;20055;-85
2023/07/26 03:17:09;;;;;;;0.70;0.50;;;11.40;1.00;;;;;;5067822;28;20326;-85
2023/07/26 03:19:48;;;;;;;0.90;0.68;;;11.30;1.00;;;;;;5051487;28;20056;-85
2023/07/26 03:22:15;;;;;;;1.10;0.70;;;11.20;84.10;;;;;;5034895;28;20152;-84
2023/07/26 03:24:42;;;;;;;0.57;0.45;;;11.20;99.90;;;;;;5051489;28;20126;-85
2023/07/26 03:27:09;;;;;;;1.23;0.77;;;11.20;99.90;;;;;;5050334;28;20045;-84
2023/07/26 03:29:36;;;;;;;1.13;0.70;;;11.20;99.90;;;;;;5034025;28;20097;-86
2023/07/26 03:32:03;;;;;;;0.73;0.50;;;11.20;99.90;;;;;;5040876;28;20075;-85
2023/07/26 03:34:30;;;;;;;0.88;0.60;;;11.20;99.90;;;;;;5062015;28;20056;-84
2023/07/26 03:36:57;;;;;;;1.05;0.73;;;11.20;99.90;;;;;;5037945;28;20056;-84
2023/07/26 03:39:24;;;;;;;0.98;0.70;;;11.20;99.90;;;;;;5064678;28;20114;-83
2023/07/26 03:41:51;;;;;;;1.30;0.80;;;11.20;99.90;;;;;;5063127;28;20114;-85
2023/07/26 03:44:18;;;;;;;0.90;0.57;;;11.10;99.90;;;;;;5047769;28;20080;-84
2023/07/26 03:46:45;;;;;;;1.42;0.90;;;11.10;99.90;;;;;;5032250;28;20068;-84
2023/07/26 03:49:13;;;;;;;0.80;0.80;;;11.00;99.90;;;;;;5045230;28;20113;-85
2023/07/26 03:51:39;;;;;;;1.02;0.70;;;11.00;99.90;;;;;;5033176;28;20053;-84
2023/07/26 03:54:06;;;;;;;1.02;0.70;;;11.00;1.00;;;;;;5063207;28;20064;-84
2023/07/26 03:56:34;;;;;;;1.45;0.88;;;11.00;1.00;;;;;;5024321;28;20167;-84
2023/07/26 03:59:01;;;;;;;0.93;0.60;;;11.00;1.00;;;;;;5033249;28;20048;-83
2023/07/26 04:01:28;;;;;;;0.93;0.60;;;11.00;1.00;;;;;;5039524;28;20053;-83
2023/07/26 04:03:55;;;;;;;1.20;0.63;;;11.00;1.00;;;;;;5024401;28;20668;-84
2023/07/26 04:06:22;;;;;;;0.95;0.68;;;11.00;1.00;;;;;;5048876;28;20150;-85
2023/07/26 04:08:49;;;;;;;1.42;0.80;;;11.00;1.00;;;;;;5032276;28;20087;-84
2023/07/26 04:11:15;;;;;;;0.80;0.50;;;11.00;1.00;;;;;;5050122;28;20041;-85
2023/07/26 04:13:42;;;;;;;0.80;0.65;;;11.00;1.00;;;;;;5060338;28;20059;-85
2023/07/26 04:16:17;;;;;;;1.13;0.75;;;10.90;1.00;;;;;;5053917;28;20049;-84
2023/07/26 04:18:44;;;;;;;0.95;0.77;;;10.90;1.00;;;;;;5059546;28;20127;-86
2023/07/26 04:21:15;;;;;;;1.13;0.77;;;10.90;1.00;;;;;;5034528;28;20048;-85
2023/07/26 04:23:43;;;;;;;0.77;0.63;;;10.90;99.90;;;;;;5034785;28;20106;-84
2023/07/26 04:26:10;;;;;;;1.65;0.93;;;10.90;99.90;;;;;;5054323;28;20475;-85
2023/07/26 04:28:37;;;;;;;1.15;0.70;;;10.90;99.90;;;;;;5069520;28;20089;-84
2023/07/26 04:31:03;;;;;;;1.20;0.80;;;10.90;99.90;;;;;;5051092;28;20048;-85
2023/07/26 04:33:30;;;;;;;0.68;0.50;;;10.90;99.90;;;;;;5052195;28;20066;-84
2023/07/26 04:35:57;;;;;;;0.98;0.70;;;11.00;99.90;;;;;;5033458;28;20141;-84
2023/07/26 04:38:27;;;;;;;1.00;0.73;;;10.90;99.90;;;;;;5032829;28;20128;-84
2023/07/26 04:40:54;;;;;;;0.90;0.65;;;10.90;99.90;;;;;;5051270;28;20057;-82
2023/07/26 04:43:21;;;;;;;0.50;0.40;;;10.90;99.90;;;;;;5050686;28;20695;-84
2023/07/26 04:45:51;;;;;;;0.82;0.60;;;10.90;99.90;;;;;;5059312;28;20063;-84
2023/07/26 04:48:19;;;;;;;1.33;0.75;;;10.90;99.90;;;;;;5038104;28;20087;-84
2023/07/26 04:50:47;;;;;;;0.80;0.60;;;11.00;99.90;;;;;;5055596;28;20052;-84
2023/07/26 04:53:15;;;;;;;1.70;0.90;;;11.10;99.90;;;;;;5055427;28;20053;-84
2023/07/26 04:55:46;;;;;;;1.02;0.60;;;11.10;99.90;;;;;;5048336;28;20049;-85
2023/07/26 04:58:13;;;;;;;1.17;0.68;;;11.00;99.90;;;;;;5030623;28;20111;-83
2023/07/26 05:00:40;;;;;;;1.15;0.65;;;11.00;99.90;;;;;;5030212;28;20049;-85
2023/07/26 05:03:07;;;;;;;1.38;0.73;;;11.00;99.90;;;;;;5047498;28;20056;-84
2023/07/26 05:05:34;;;;;;;1.50;0.73;;;11.10;99.90;;;;;;5030766;28;20098;-84
2023/07/26 05:08:01;;;;;;;1.02;0.73;;;11.10;99.90;;;;;;5037491;28;20689;-84
2023/07/26 05:10:29;;;;;;;1.80;0.80;;;11.20;99.90;;;;;;5051462;28;20921;-84
2023/07/26 05:12:57;;;;;;;1.20;0.70;;;11.30;99.90;;;;;;5057130;28;20553;-82
2023/07/26 05:15:24;;;;;;;1.30;0.70;;;11.40;99.90;;;;;;5053466;28;20059;-83
2023/07/26 05:17:51;;;;;;;1.05;0.70;;;11.50;99.90;;;;;;5037188;28;20147;-84
2023/07/26 05:20:18;;;;;;;0.55;0.50;;;11.60;99.90;;;;;;5053987;28;20051;-85
2023/07/26 05:22:45;;;;;;;0.68;0.60;;;11.70;99.90;;;;;;5055256;28;20085;-84
2023/07/26 05:25:12;;;;;;;0.98;0.68;;;11.70;99.90;;;;;;5059697;28;20071;-83
2023/07/26 05:27:38;;;;;;;0.95;0.70;;;11.80;99.90;;;;;;5081402;28;20082;-85
2023/07/26 05:30:06;;;;;;;0.98;0.50;;;11.90;99.90;;;;;;5045841;28;20059;-84
2023/07/26 05:32:33;;;;;;;0.75;0.55;;;12.00;99.90;;;;;;5031971;28;20043;-85
2023/07/26 05:35:00;;;;;;;0.80;0.60;;;12.10;99.90;;;;;;5041901;28;20722;-84
2023/07/26 05:37:29;;;;;;;0.98;0.70;;;12.10;83.80;;;;;;5035429;28;20071;-86
2023/07/26 05:39:56;;;;;;;1.08;0.82;;;12.20;29.00;;;;;;5030389;28;20151;-81
2023/07/26 05:42:23;;;;;;;0.90;0.60;;;12.20;15.70;;;;;;5060235;28;20143;-81
2023/07/26 05:44:49;;;;;;;0.47;0.43;;;12.30;17.00;;;;;;5024475;28;20056;-85
2023/07/26 05:47:16;;;;;;;1.00;0.65;;;12.30;1.00;;;;;;5027649;28;20056;-84
2023/07/26 05:49:43;;;;;;;1.05;0.82;;;12.40;16.00;;;;;;5056888;28;20072;-83
2023/07/26 05:52:10;;;;;;;0.80;0.65;;;12.40;5.70;;;;;;5042614;28;20560;-85
2023/07/26 05:54:37;;;;;;;0.70;0.57;;;12.50;1.00;;;;;;5043030;28;20048;-83
2023/07/26 05:57:04;;;;;;;0.85;0.52;;;12.50;1.00;;;;;;5043016;28;20049;-83
2023/07/26 05:59:31;;;;;;;1.15;0.60;;;12.60;1.00;;;;;;5041268;28;20044;-83
2023/07/26 06:01:58;;;;;;;0.95;0.60;;;12.70;1.00;;;;;;5045083;28;20064;-85
2023/07/26 06:04:25;;;;;;;0.80;0.43;;;12.70;1.00;;;;;;5044599;28;20102;-83
2023/07/26 06:06:52;;;;;;;0.70;0.50;;;12.80;1.00;;;;;;5051126;28;20051;-83
2023/07/26 06:09:20;;;;;;;1.23;0.80;;;12.90;1.00;;;;;;5060159;28;20051;-83
2023/07/26 06:11:47;;;;;;;1.33;0.70;;;13.00;1.00;;;;;;5047131;28;20070;-82
2023/07/26 06:14:24;;;;;;;0.65;0.52;;;13.10;1.00;;;;;;5025993;28;20182;-82
2023/07/26 06:16:52;;;;;;;1.10;0.70;;;13.20;1.00;;;;;;5043089;28;20053;-81
2023/07/26 06:19:19;;;;;;;1.13;0.80;;;13.20;1.00;;;;;;5045219;28;20048;-83
2023/07/26 06:21:46;;;;;;;0.95;0.57;;;13.30;1.00;;;;;;5031429;28;20083;-84
2023/07/26 06:24:13;;;;;;;1.05;0.80;;;13.40;99.90;;;;;;5060957;28;20686;-84
2023/07/26 06:26:40;;;;;;;1.02;0.70;;;13.40;99.90;;;;;;5039246;28;20107;-83
2023/07/26 06:29:07;;;;;;;0.80;0.60;;;13.50;1.00;;;;;;5050217;28;20074;-83
2023/07/26 06:31:33;;;;;;;0.65;0.43;;;13.60;1.00;;;;;;5061499;28;20045;-82
2023/07/26 06:34:01;;;;;;;0.50;0.50;;;13.60;99.90;;;;;;5054237;28;20041;-82
2023/07/26 06:36:28;;;;;;;1.98;0.93;;;13.70;99.90;;;;;;5055501;28;20139;-81
2023/07/26 06:38:55;;;;;;;0.93;0.60;;;13.80;99.90;;;;;;5018159;28;20048;-83
2023/07/26 06:41:22;;;;;;;1.17;0.70;;;13.90;99.90;;;;;;5036423;28;20484;-78
2023/07/26 06:43:48;;;;;;;0.80;0.52;;;14.00;99.90;;;;;;5048670;28;20121;-77
2023/07/26 06:46:16;;;;;;;1.25;0.80;;;14.10;99.90;;;;;;5037373;28;20053;-83
2023/07/26 06:48:44;;;;;;;1.55;0.90;;;14.10;99.90;;;;;;5027152;28;20044;-83
2023/07/26 06:51:12;;;;;;;1.25;0.70;;;14.20;99.90;;;;;;5042493;28;20134;-84
2023/07/26 06:53:39;;;;;;;1.35;0.80;;;14.20;99.90;;;;;;5040771;28;20388;-85
2023/07/26 06:56:06;;;;;;;0.73;0.50;;;14.30;99.90;;;;;;5045429;28;20466;-84
2023/07/26 06:58:33;;;;;;;1.75;0.85;;;14.40;99.90;;;;;;5045502;28;20073;-84
2023/07/26 07:00:59;;;;;;;0.68;0.52;;;14.50;80.90;;;;;;5016865;28;20393;-83
2023/07/26 07:03:27;;;;;;;1.20;0.73;;;14.60;79.30;;;;;;5027893;28;20052;-84
2023/07/26 07:05:54;;;;;;;1.70;0.82;;;14.70;18.60;;;;;;5038836;28;20044;-83
2023/07/26 07:08:21;;;;;;;0.93;0.70;;;14.80;1.00;;;;;;5038206;28;20431;-84
2023/07/26 07:10:48;;;;;;;1.25;0.77;;;14.80;99.90;;;;;;5032460;28;20058;-82
2023/07/26 07:13:15;;;;;;;0.73;0.60;;;14.90;99.90;;;;;;5017259;28;20045;-82
2023/07/26 07:15:42;;;;;;;1.35;0.77;;;14.90;99.90;;;;;;5033268;28;20049;-83
2023/07/26 07:18:09;;;;;;;1.15;0.80;;;15.00;99.90;;;;;;5061600;28;20063;-83
2023/07/26 07:20:42;;;;;;;1.35;0.90;;;15.10;99.90;;;;;;5061916;28;20067;-83
2023/07/26 07:23:09;;;;;;;0.85;0.63;;;15.20;1.00;;;;;;5062529;28;20045;-83
2023/07/26 07:25:39;;;;;;;0.88;0.60;;;15.30;1.00;;;;;;5053223;28;20048;-83
2023/07/26 07:28:06;;;;;;;0.55;0.50;;;15.30;1.00;;;;;;5041301;28;20045;-82
2023/07/26 07:30:33;;;;;;;1.15;0.88;;;15.40;99.90;;;;;;5055369;28;20156;-83
2023/07/26 07:33:00;;;;;;;1.00;0.70;;;15.50;99.90;;;;;;5050381;28;20048;-83
2023/07/26 07:35:27;;;;;;;0.93;0.60;;;15.60;72.70;;;;;;5048122;28;20049;-82
2023/07/26 07:37:54;;;;;;;0.98;0.65;;;15.70;44.20;;;;;;5042014;28;20048;-82
2023/07/26 07:40:21;;;;;;;1.38;0.90;;;15.70;96.50;;;;;;5057158;28;20533;-82
2023/07/26 07:42:48;;;;;;;1.63;0.90;;;15.80;1.00;;;;;;5033695;28;20056;-82
2023/07/26 07:45:15;;;;;;;0.93;0.60;;;15.90;99.90;;;;;;5046678;28;20504;-82
2023/07/26 07:47:42;;;;;;;1.02;0.70;;;16.00;99.90;;;;;;5041426;28;20464;-82
2023/07/26 07:50:09;;;;;;;0.95;0.60;;;16.10;99.90;;;;;;5030561;28;20163;-81
2023/07/26 07:52:36;;;;;;;0.65;0.50;;;16.20;99.90;;;;;;5024839;28;20072;-81
2023/07/26 07:55:03;;;;;;;0.73;0.60;;;16.30;99.90;;;;;;5025774;28;20342;-83
2023/07/26 07:57:30;;;;;;;0.85;0.65;;;16.40;58.20;;;;;;5022060;28;20533;-82
2023/07/26 07:59:56;;;;;;;1.50;0.90;;;16.50;24.10;;;;;;5013205;28;20056;-82
2023/07/26 08:02:23;;;;;;;1.23;0.80;;;16.60;15.10;;;;;;5027764;28;20067;-82
2023/07/26 08:04:50;;;;;;;1.42;1.05;;;16.70;1.00;;;;;;5018618;28;20045;-82
2023/07/26 08:07:17;;;;;;;1.00;0.75;;;16.80;1.00;;;;;;5027150;28;20484;-83
2023/07/26 08:09:44;;;;;;;1.25;0.88;;;16.90;1.00;;;;;;5020199;28;20089;-82
2023/07/26 08:12:12;;;;;;;0.75;0.50;;;16.90;1.00;;;;;;5057088;28;20118;-83
2023/07/26 08:14:39;;;;;;;1.10;0.77;;;17.10;1.00;;;;;;5065135;28;20052;-83
2023/07/26 08:17:06;;;;;;;0.57;0.43;;;17.20;1.00;;;;;;5054235;28;20052;-83
2023/07/26 08:19:32;;;;;;;1.58;0.82;;;17.30;1.00;;;;;;5034269;28;20056;-82
2023/07/26 08:21:59;;;;;;;1.00;0.60;;;17.40;1.00;;;;;;5046655;28;20057;-83
2023/07/26 08:24:26;;;;;;;1.15;0.70;;;17.60;1.00;;;;;;5029832;28;20082;-83
2023/07/26 08:26:54;;;;;;;1.30;0.90;;;17.60;1.00;;;;;;5053619;28;20448;-83
2023/07/26 08:29:21;;;;;;;1.05;0.70;;;17.80;1.00;;;;;;5055000;28;20048;-82
2023/07/26 08:31:47;;;;;;;1.00;0.70;;;17.90;1.00;;;;;;5027528;28;20136;-84
2023/07/26 08:34:14;;;;;;;0.50;0.50;;;18.00;1.00;;;;;;5043521;28;20045;-82
2023/07/26 08:36:41;;;;;;;0.80;0.57;;;18.20;1.00;;;;;;5011712;28;20118;-83
2023/07/26 08:39:08;;;;;;;0.98;0.57;;;18.40;1.00;;;;;;5048496;28;20049;-83
2023/07/26 08:41:51;;;;;;;1.17;0.60;;;18.60;1.00;;;;;;5041667;28;20052;-84
2023/07/26 08:44:18;;;;;;;1.25;0.90;;;18.60;1.00;;;;;;5046333;28;20060;-83
2023/07/26 08:46:47;;;;;;;1.10;0.77;;;18.60;1.00;;;;;;5027416;28;20904;-83
2023/07/26 08:49:14;;;;;;;0.93;0.68;;;18.60;1.00;;;;;;5050576;28;20593;-83
2023/07/26 08:51:43;;;;;;;1.10;0.73;;;18.50;1.00;;;;;;5030404;28;20045;-83
2023/07/26 08:54:10;;;;;;;1.10;0.80;;;18.60;1.00;;;;;;5063620;28;20064;-83
2023/07/26 08:56:37;;;;;;;0.95;0.75;;;18.70;1.00;;;;;;5047852;28;20455;-83
2023/07/26 08:59:04;;;;;;;0.90;0.50;;;18.80;1.00;;;;;;5028192;28;20052;-83
2023/07/26 09:01:31;;;;;;;1.33;0.82;;;18.80;1.00;;;;;;5048905;28;20071;-83
2023/07/26 09:04:16;;;;;;;0.80;0.70;;;18.80;1.00;;;;;;5029287;28;20930;-84
2023/07/26 09:06:45;;;;;;;1.60;0.73;;;18.80;1.00;;;;;;5026646;28;20350;-82
2023/07/26 09:09:11;;;;;;;0.82;0.60;;;18.90;1.00;;;;;;5055744;28;20078;-84
2023/07/26 09:11:48;;;;;;;1.25;0.90;;;19.00;1.00;;;;;;5027533;28;20118;-83
2023/07/26 09:14:15;;;;;;;1.55;0.90;;;18.90;1.00;;;;;;5047856;28;20117;-86
2023/07/26 09:16:45;;;;;;;1.13;0.82;;;19.00;1.00;;;;;;5047301;28;20059;-88
2023/07/26 09:19:12;;;;;;;0.70;0.60;;;19.10;1.00;;;;;;5058442;28;20049;-87
2023/07/26 09:21:39;;;;;;;1.23;0.95;;;19.20;1.00;;;;;;5066897;28;20048;-79
2023/07/26 09:24:06;;;;;;;1.25;0.90;;;19.20;1.00;;;;;;5040579;28;20102;-79
2023/07/26 09:26:39;;;;;;;1.73;1.10;;;19.40;1.00;;;;;;5051717;28;20052;-80
2023/07/26 09:29:11;;;;;;;1.52;0.82;;;19.50;1.00;;;;;;5024949;28;20123;-80
2023/07/26 09:31:41;;;;;;;1.55;1.17;;;19.70;1.00;;;;;;5019294;28;20045;-79
2023/07/26 09:34:10;;;;;;;2.35;1.55;;;19.80;1.00;;;;;;5059550;28;20109;-79
2023/07/26 09:36:44;;;;;;;2.05;1.30;;;19.80;1.00;;;;;;5036078;28;20048;-79
2023/07/26 09:39:12;;;;;;;1.70;1.20;;;19.80;1.00;;;;;;5038345;28;20076;-80
2023/07/26 09:41:39;;;;;;;2.10;1.60;;;20.00;1.00;;;;;;5030176;28;20095;-79
2023/07/26 09:44:06;;;;;;;1.33;1.10;;;20.10;1.00;;;;;;5051419;28;20143;-79
2023/07/26 09:46:55;;;;;;;1.60;1.30;;;20.20;1.00;;;;;;5026394;28;20049;-79
2023/07/26 09:49:23;;;;;;;2.97;1.40;;;20.40;1.00;;;;;;5005857;28;20099;-79
2023/07/26 09:51:54;;;;;;;2.05;1.30;;;20.70;1.00;;;;;;5043900;28;20044;-79
2023/07/26 09:54:27;;;;;;;;;;;21.00;1.00;;;;;;5048094;28;20071;-79
2023/07/26 09:56:59;;;;;;;1.52;0.98;;;21.00;1.00;;;;;;5058372;28;19978;-79
2023/07/26 09:59:28;;;;;;;1.65;1.00;;;21.10;1.00;;;;;;5021457;28;20459;-79
2023/07/26 10:01:56;;;;;;;2.15;1.40;;;21.10;1.00;;;;;;5030017;28;20565;-79
2023/07/26 10:04:32;;;;;;;1.38;0.98;;;21.00;1.00;;;;;;5025251;28;20099;-79
2023/07/26 10:07:00;;;;;;;1.75;1.25;;;21.00;1.00;;;;;;5047656;28;20075;-80
2023/07/26 10:09:27;;;;;;;1.73;1.15;;;21.00;1.00;;;;;;5034142;28;20380;-79
2023/07/26 10:11:54;;;;;;;1.33;1.00;;;21.00;1.00;;;;;;5044644;28;20545;-79
2023/07/26 10:14:21;;;;;;;2.17;1.30;;;20.80;1.00;;;;;;5019586;28;20060;-79
2023/07/26 10:16:47;;;;;;;1.60;1.17;;;20.90;1.00;;;;;;5037409;28;20045;-79
2023/07/26 10:19:14;;;;;;;1.30;0.98;;;21.00;1.00;;;;;;5019193;28;20110;-80
2023/07/26 10:21:41;;;;;;;2.25;1.45;;;21.00;1.00;;;;;;5016150;28;20106;-79
2023/07/26 10:24:08;;;;;;;2.33;1.77;;;21.20;1.00;;;;;;5029425;28;20139;-79
2023/07/26 10:26:35;;;;;;;1.67;1.20;;;21.20;1.00;;;;;;5020787;28;20122;-78
2023/07/26 10:29:02;;;;;;;1.80;1.30;;;21.30;1.00;;;;;;5021954;28;20399;-79
2023/07/26 10:31:30;;;;;;;1.83;1.30;;;21.50;1.00;;;;;;5034750;28;20140;-79
2023/07/26 10:33:57;;;;;;;1.98;1.33;;;21.70;1.00;;;;;;5013246;28;20049;-79
2023/07/26 10:36:31;;;;;;;2.13;1.52;;;21.80;1.00;;;;;;5045267;28;20102;-79
2023/07/26 10:39:05;;;;;;;1.65;1.30;;;21.90;1.00;;;;;;5050201;28;20093;-79
2023/07/26 10:41:34;;;;;;;1.63;1.10;;;22.00;1.00;;;;;;5010205;28;20477;-79
2023/07/26 10:44:08;;;;;;;1.67;1.05;;;22.20;1.00;;;;;;5034919;28;20977;-80
2023/07/26 10:46:48;;;;;;;1.65;1.20;;;22.30;1.00;;;;;;5047201;28;20447;-79
2023/07/26 10:49:17;;;;;;;1.55;1.20;;;22.50;1.00;;;;;;5048798;28;20060;-79
2023/07/26 10:52:02;;;;;;;1.65;1.20;;;22.60;1.00;;;;;;5028631;28;20061;-79
2023/07/26 10:54:36;;;;;;;1.15;0.90;;;22.90;1.00;;;;;;5041916;28;20044;-79
2023/07/26 10:57:28;;;;;;;1.90;1.35;;;23.20;1.00;;;;;;5056394;28;20048;-79
2023/07/26 11:00:06;;;;;;;1.33;1.15;;;23.10;1.00;;;;;;5044699;28;20429;-79
2023/07/26 11:02:46;;;;;;;2.03;1.45;;;23.00;1.00;;;;;;5046073;28;20174;-80
2023/07/26 11:05:17;;;;;;;1.88;1.20;;;23.10;1.00;;;;;;5051525;28;20055;-79
2023/07/26 11:07:58;;;;;;;2.05;1.40;;;23.10;1.00;;;;;;5027634;28;20223;-80
2023/07/26 11:10:35;;;;;;;2.08;1.60;;;23.00;1.00;;;;;;5052905;28;20508;-80
2023/07/26 11:13:11;;;;;;;2.08;1.40;;;22.90;1.00;;;;;;5026189;28;20044;-79
2023/07/26 11:15:42;;;;;;;1.48;1.20;;;22.80;1.00;;;;;;5060627;28;20049;-80
2023/07/26 11:18:29;;;;;;;1.85;1.33;;;22.90;1.00;;;;;;5043450;28;20053;-79
2023/07/26 11:20:57;;;;;;;1.63;1.25;;;23.00;1.00;;;;;;5048329;28;20097;-79
2023/07/26 11:23:27;;;;;;;1.40;1.10;;;23.40;1.00;;;;;;5031300;28;20052;-79
2023/07/26 11:26:00;;;;;;;1.60;1.20;;;23.60;1.00;;;;;;5049107;28;20048;-79
2023/07/26 11:28:31;;;;;;;1.83;1.23;;;23.50;1.00;;;;;;5024358;28;20049;-79
2023/07/26 11:30:58;;;;;;;1.83;1.35;;;23.60;1.00;;;;;;5047698;28;20488;-81
2023/07/26 11:33:33;;;;;;;1.67;1.13;;;23.70;1.00;;;;;;5035661;28;20194;-78
2023/07/26 11:36:02;;;;;;;2.05;1.30;;;24.00;1.00;;;;;;5040946;28;20401;-78
2023/07/26 11:38:29;;;;;;;2.78;1.45;;;24.20;1.00;;;;;;5039176;28;20182;-79
2023/07/26 11:40:56;;;;;;;2.30;1.33;;;24.20;1.00;;;;;;5054882;28;20048;-78
2023/07/26 11:43:25;;;;;;;1.05;0.93;;;24.30;1.00;;;;;;5018298;28;20476;-78
2023/07/26 11:45:53;;;;;;;1.63;1.10;;;24.30;1.00;;;;;;5042627;28;20045;-78
2023/07/26 11:48:20;;;;;;;1.60;1.40;;;24.60;1.00;;;;;;5025281;28;20531;-78
2023/07/26 11:50:47;;;;;;;1.88;1.40;;;24.70;1.00;;;;;;5059447;28;20056;-78
2023/07/26 11:53:14;;;;;;;1.33;1.02;;;24.70;1.00;;;;;;5064592;28;20065;-78
2023/07/26 11:55:54;;;;;;;1.88;1.30;;;24.60;1.00;;;;;;5050454;28;20129;-78
2023/07/26 11:58:21;;;;;;;1.88;1.13;;;24.60;1.00;;;;;;5064429;28;20172;-78
2023/07/26 12:00:48;;;;;;;1.67;1.40;;;24.70;1.00;;;;;;5044646;28;20115;-78
2023/07/26 12:03:15;;;;;;;1.80;1.33;;;25.00;1.00;;;;;;5037860;28;20124;-78
2023/07/26 12:05:44;;;;;;;1.40;1.15;;;25.40;1.00;;;;;;5047199;28;20063;-78
2023/07/26 12:08:11;;;;;;;1.75;1.27;;;25.30;1.00;;;;;;5045544;28;20086;-78
2023/07/26 12:10:41;;;;;;;2.58;1.67;;;25.10;1.00;;;;;;5045096;28;20075;-78
2023/07/26 12:13:34;;;;;;;2.15;1.77;;;25.10;1.00;;;;;;5043322;28;20057;-78
2023/07/26 12:16:02;;;;;;;2.92;2.13;;;25.20;1.00;;;;;;5057303;28;20049;-78
2023/07/26 12:18:29;;;;;;;2.15;1.50;;;25.70;1.00;;;;;;5028976;28;20056;-79
2023/07/26 12:21:09;;;;;;;1.55;1.20;;;25.70;1.00;;;;;;5063905;28;20052;-78
2023/07/26 12:23:55;;;;;;;1.60;1.20;;;25.50;1.00;;;;;;5027012;28;20141;-78
2023/07/26 12:26:25;;;;;;;1.35;1.00;;;25.40;1.00;;;;;;5042864;28;20060;-78
2023/07/26 12:28:53;;;;;;;1.65;1.13;;;25.50;1.00;;;;;;5042584;28;20345;-79
2023/07/26 12:31:23;;;;;;;1.95;1.40;;;26.00;1.00;;;;;;5024995;28;20075;-79
2023/07/26 12:34:08;;;;;;;1.88;1.35;;;26.10;1.00;;;;;;5020398;28;20408;-78
2023/07/26 12:36:41;;;;;;;1.52;1.27;;;26.40;1.00;;;;;;5025867;28;20053;-78
2023/07/26 12:39:08;;;;;;;1.73;1.23;;;26.60;1.00;;;;;;5041921;28;20216;-78
2023/07/26 12:41:36;;;;;;;1.67;1.40;;;26.40;1.00;;;;;;5024067;28;20203;-78
2023/07/26 12:44:07;;;;;;;1.50;1.40;;;25.80;1.00;;;;;;5045575;28;20060;-79
2023/07/26 12:46:34;;;;;;;1.65;1.40;;;25.60;1.00;;;;;;5045091;28;20067;-78
2023/07/26 12:49:21;;;;;;;0.93;0.90;;;26.20;1.00;;;;;;5036131;28;20139;-79
2023/07/26 12:51:50;;;;;;;1.48;1.25;;;26.90;1.00;;;;;;5043117;28;20661;-79
2023/07/26 12:54:18;;;;;;;2.05;1.75;;;27.40;1.00;;;;;;5063310;28;20041;-79
2023/07/26 12:56:45;;;;;;;1.73;1.30;;;27.20;1.00;;;;;;5063869;28;20064;-79
2023/07/26 12:59:12;;;;;;;2.17;1.50;;;27.20;1.00;;;;;;5064186;28;20055;-79